Time;durP1;ratioP1;P1;durP2;ratioP2;P2;SDS_P1;SDS_P2;PMS_P1;PMS_P2;Temp;Humidity;BMP_temperature;BMP_pressure;BME280_temperature;BME280_humidity;BME280_pressure;Samples;Min_cycle;Max_cycle;Signal;HPM_P1;HPM_P2
2022/04/21 00:00:39;;;;;;;;;;;8.70;84.90;;;;;;5121271;28;19908;-64
2022/04/21 00:03:05;;;;;;;;;;;8.70;85.60;;;;;;5121809;28;19914;-65
2022/04/21 00:05:31;;;;;;;;;;;8.70;85.40;;;;;;5126106;28;19908;-65
2022/04/21 00:07:57;;;;;;;;;;;8.60;85.80;;;;;;5125502;28;20017;-65
2022/04/21 00:10:23;;;;;;;;;;;8.60;85.80;;;;;;5125555;28;19919;-65
2022/04/21 00:12:48;;;;;;;;;;;8.60;85.80;;;;;;5125591;28;20313;-65
2022/04/21 00:15:14;;;;;;;;;;;8.60;85.90;;;;;;5125439;28;20003;-65
2022/04/21 00:17:40;;;;;;;;;;;8.60;86.30;;;;;;5125391;28;20199;-65
2022/04/21 00:20:06;;;;;;;;;;;8.50;86.50;;;;;;5125509;28;19912;-65
2022/04/21 00:25:16;;;;;;;;;;;8.50;86.90;;;;;;5124299;28;20098;-65
2022/04/21 00:27:43;;;;;;;;;;;8.50;86.90;;;;;;5125363;28;19916;-66
2022/04/21 00:30:09;;;;;;;;;;;8.40;87.30;;;;;;5125389;28;19920;-65
2022/04/21 00:32:36;;;;;;;;;;;8.30;87.40;;;;;;5125143;28;19950;-65
2022/04/21 00:35:02;;;;;;;;;;;8.30;87.60;;;;;;5125259;28;19926;-65
2022/04/21 00:37:28;;;;;;;;;;;8.40;87.50;;;;;;5124978;28;19922;-65
2022/04/21 00:39:54;;;;;;;;;;;8.40;87.60;;;;;;5124783;28;20095;-65
2022/04/21 00:42:20;;;;;;;;;;;8.50;87.60;;;;;;5124780;28;19950;-65
2022/04/21 00:44:46;;;;;;;;;;;8.40;87.70;;;;;;5124967;28;19930;-65
2022/04/21 00:47:12;;;;;;;;;;;8.40;87.80;;;;;;5124859;28;19916;-66
2022/04/21 00:49:38;;;;;;;;;;;8.40;87.90;;;;;;5124853;28;19914;-65
2022/04/21 00:52:03;;;;;;;;;;;8.40;87.90;;;;;;5106474;28;20084;-66
2022/04/21 00:54:30;;;;;;;;;;;8.30;88.20;;;;;;5124512;28;20212;-66
2022/04/21 00:56:56;;;;;;;;;;;8.40;88.10;;;;;;5106695;28;20179;-66
2022/04/21 00:59:21;;;;;;;;;;;8.40;88.10;;;;;;5124755;28;19912;-66
2022/04/21 01:04:31;;;;;;;;;;;8.40;88.30;;;;;;5109172;28;20217;-66
2022/04/21 01:06:57;;;;;;;;;;;8.40;88.50;;;;;;5089546;28;19943;-65
2022/04/21 01:09:23;;;;;;;;;;;8.30;88.70;;;;;;5124497;28;20156;-65
2022/04/21 01:11:49;;;;;;;;;;;8.30;88.60;;;;;;5124261;28;19945;-66
2022/04/21 01:14:15;;;;;;;;;;;8.40;88.70;;;;;;5089293;28;19971;-65
2022/04/21 01:16:40;;;;;;;;;;;8.40;88.80;;;;;;5123607;28;20203;-66
2022/04/21 01:19:06;;;;;;;;;;;8.40;88.80;;;;;;5124391;28;19912;-66
2022/04/21 01:21:32;;;;;;;;;;;8.40;88.70;;;;;;5124298;28;20130;-66
2022/04/21 01:23:57;;;;;;;;;;;8.40;89.00;;;;;;5124395;28;19916;-66
2022/04/21 01:26:26;;;;;;;;;;;8.50;88.60;;;;;;5124106;28;19908;-66
2022/04/21 01:28:51;;;;;;;;;;;8.50;88.30;;;;;;5122971;28;19908;-66
2022/04/21 01:31:23;;;;;;;;;;;8.50;88.30;;;;;;5124025;28;19915;-66
2022/04/21 01:33:49;;;;;;;;;;;8.50;88.10;;;;;;5124265;28;19915;-66
2022/04/21 01:36:15;;;;;;;;;;;8.50;88.30;;;;;;5124214;28;19915;-66
2022/04/21 01:41:25;;;;;;;;;;;8.50;88.00;;;;;;5123741;28;19938;-65
2022/04/21 01:43:50;;;;;;;;;;;8.50;88.30;;;;;;5124093;28;19907;-65
2022/04/21 01:46:16;;;;;;;;;;;8.60;88.40;;;;;;5124000;28;19907;-67
2022/04/21 01:48:42;;;;;;;;;;;8.70;88.50;;;;;;5123899;28;19908;-66
2022/04/21 01:51:08;;;;;;;;;;;8.70;88.70;;;;;;5141495;27;19915;-66
2022/04/21 01:53:33;;;;;;;;;;;8.70;88.90;;;;;;5144321;27;19918;-65
2022/04/21 01:55:59;;;;;;;;;;;8.70;89.10;;;;;;5128467;27;19908;-65
2022/04/21 01:58:25;;;;;;;;;;;8.70;89.00;;;;;;5123594;28;19927;-65
2022/04/21 02:00:51;;;;;;;;;;;8.70;89.10;;;;;;5123133;28;19908;-65
2022/04/21 02:03:16;;;;;;;;;;;8.70;89.00;;;;;;5123649;28;19939;-66
2022/04/21 02:05:42;;;;;;;;;;;8.70;88.60;;;;;;5123456;28;19908;-66
2022/04/21 02:08:08;;;;;;;;;;;8.70;88.90;;;;;;5123523;28;19908;-65
2022/04/21 02:10:33;;;;;;;;;;;8.80;88.70;;;;;;5123089;28;20187;-65
2022/04/21 02:12:59;;;;;;;;;;;8.80;88.30;;;;;;5123435;28;19939;-66
2022/04/21 02:15:26;;;;;;;;;;;8.80;88.10;;;;;;5123294;28;19938;-65
2022/04/21 02:17:51;;;;;;;;;;;8.80;88.00;;;;;;5123254;28;19923;-65
2022/04/21 02:20:17;;;;;;;;;;;8.80;87.70;;;;;;5123130;28;19907;-66
2022/04/21 02:22:46;;;;;;;;;;;8.70;88.10;;;;;;5122922;28;20214;-66
2022/04/21 02:25:13;;;;;;;;;;;8.60;88.70;;;;;;5122258;28;19915;-65
2022/04/21 02:27:42;;;;;;;;;;;8.60;88.60;;;;;;5122766;28;19953;-66
2022/04/21 02:30:09;;;;;;;;;;;8.60;88.50;;;;;;5123130;28;20115;-65
2022/04/21 02:32:35;;;;;;;;;;;8.70;88.30;;;;;;5122759;28;19930;-65
2022/04/21 02:35:02;;;;;;;;;;;8.60;88.70;;;;;;5122840;28;19908;-65
2022/04/21 02:37:28;;;;;;;;;;;8.50;88.70;;;;;;5122701;28;20229;-65
2022/04/21 02:39:54;;;;;;;;;;;8.50;89.00;;;;;;5122768;28;19973;-65
2022/04/21 02:42:20;;;;;;;;;;;8.50;89.20;;;;;;5122697;28;20401;-65
2022/04/21 02:44:46;;;;;;;;;;;8.40;89.30;;;;;;5122845;28;19950;-65
2022/04/21 02:47:12;;;;;;;;;;;8.40;89.60;;;;;;5122778;28;19914;-65
2022/04/21 02:49:38;;;;;;;;;;;8.30;90.00;;;;;;5122815;28;19987;-65
2022/04/21 02:52:07;;;;;;;;;;;8.40;90.00;;;;;;5104436;28;20225;-65
2022/04/21 02:57:20;;;;;;;;;;;8.20;90.40;;;;;;5122897;28;19998;-66
2022/04/21 02:59:46;;;;;;;;;;;8.40;90.10;;;;;;5122256;28;19978;-65
2022/04/21 03:02:12;;;;;;;;;;;8.50;89.70;;;;;;5122476;28;20195;-65
2022/04/21 03:04:38;;;;;;;;;;;8.50;89.50;;;;;;5122641;28;19908;-66
2022/04/21 03:07:04;;;;;;;;;;;8.50;89.40;;;;;;5104342;28;19995;-65
2022/04/21 03:09:29;;;;;;;;;;;8.60;89.50;;;;;;5104209;28;19957;-66
2022/04/21 03:12:01;;;;;;;;;;;8.60;89.20;;;;;;5121965;28;19916;-65
2022/04/21 03:14:26;;;;;;;;;;;8.60;89.20;;;;;;5122582;28;19943;-66
2022/04/21 03:16:52;;;;;;;;;;;8.50;89.60;;;;;;5122240;28;19922;-66
2022/04/21 03:19:18;;;;;;;;;;;8.60;89.90;;;;;;5122404;28;19950;-66
2022/04/21 03:24:29;;;;;;;;;;;8.60;89.10;;;;;;5121603;28;20214;-65
2022/04/21 03:26:55;;;;;;;;;;;8.50;89.00;;;;;;5121799;28;19923;-66
2022/04/21 03:29:21;;;;;;;;;;;8.60;89.10;;;;;;5122190;28;19909;-65
2022/04/21 03:31:48;;;;;;;;;;;8.60;88.90;;;;;;5121903;28;19908;-66
2022/04/21 03:34:15;;;;;;;;;;;8.60;89.10;;;;;;5122239;28;19970;-65
2022/04/21 03:36:50;;;;;;;;;;;8.60;89.00;;;;;;5121905;28;19908;-65
2022/04/21 03:39:17;;;;;;;;;;;8.70;89.00;;;;;;5121704;28;20044;-67
2022/04/21 03:41:42;;;;;;;;;;;8.70;88.90;;;;;;5121495;28;19908;-66
2022/04/21 03:44:09;;;;;;;;;;;8.70;89.30;;;;;;5122029;28;19908;-65
2022/04/21 03:46:35;;;;;;;;;;;8.70;89.10;;;;;;5121945;28;19980;-65
2022/04/21 03:49:00;;;;;;;;;;;8.70;89.10;;;;;;5103586;28;20218;-65
2022/04/21 03:51:27;;;;;;;;;;;8.60;89.40;;;;;;5121569;28;19939;-65
2022/04/21 03:53:55;;;;;;;;;;;8.50;89.40;;;;;;5121753;28;19940;-66
2022/04/21 03:56:21;;;;;;;;;;;8.60;89.60;;;;;;5121363;28;19939;-65
2022/04/21 03:58:47;;;;;;;;;;;8.60;89.70;;;;;;5121842;28;19933;-65
2022/04/21 04:01:13;;;;;;;;;;;8.70;89.80;;;;;;5121036;28;20141;-66
2022/04/21 04:03:39;;;;;;;;;;;8.70;89.50;;;;;;5121767;28;20084;-66
2022/04/21 04:10:51;;;;;;;;;;;8.70;89.40;;;;;;5121668;28;19915;-66
2022/04/21 04:11:36;;;;;;;;;;;8.70;89.10;;;;;;5121008;28;19914;-65
2022/04/21 04:14:01;;;;;;;;;;;8.80;89.40;;;;;;5121426;28;19943;-65
2022/04/21 04:16:28;;;;;;;;;;;8.70;89.20;;;;;;5121411;28;19911;-65
2022/04/21 04:18:54;;;;;;;;;;;8.70;89.80;;;;;;5121550;28;19911;-66
2022/04/21 04:21:20;;;;;;;;;;;8.70;90.00;;;;;;5121245;28;19938;-66
2022/04/21 04:23:45;;;;;;;;;;;8.70;90.00;;;;;;5121327;28;19953;-65
2022/04/21 04:26:11;;;;;;;;;;;8.70;89.80;;;;;;5120575;28;19983;-65
2022/04/21 04:28:37;;;;;;;;;;;8.70;89.50;;;;;;5117050;28;20088;-66
2022/04/21 04:31:02;;;;;;;;;;;8.60;90.10;;;;;;5117505;28;19934;-66
2022/04/21 04:33:28;;;;;;;;;;;8.70;90.00;;;;;;5115725;28;19974;-66
2022/04/21 04:35:54;;;;;;;;;;;8.60;90.20;;;;;;5113115;28;19911;-65
2022/04/21 04:38:19;;;;;;;;;;;8.60;90.00;;;;;;5119142;28;19923;-65
2022/04/21 04:40:45;;;;;;;;;;;8.70;90.10;;;;;;5120736;28;20115;-65
2022/04/21 04:43:11;;;;;;;;;;;8.70;90.10;;;;;;5121045;28;20180;-66
2022/04/21 04:48:20;;;;;;;;;;;8.60;90.00;;;;;;5119156;28;19919;-65
2022/04/21 04:50:46;;;;;;;;;;;8.60;90.30;;;;;;5144425;27;19908;-65
2022/04/21 04:53:13;;;;;;;;;;;8.60;90.20;;;;;;5145503;27;19907;-66
2022/04/21 04:55:39;;;;;;;;;;;8.50;90.40;;;;;;5135199;27;20118;-65
2022/04/21 04:58:04;;;;;;;;;;;8.60;90.40;;;;;;5124762;28;19919;-65
2022/04/21 05:00:30;;;;;;;;;;;8.60;90.30;;;;;;5124656;28;19916;-66
2022/04/21 05:02:56;;;;;;;;;;;8.60;90.30;;;;;;5124629;28;19908;-65
2022/04/21 05:05:22;;;;;;;;;;;8.60;90.10;;;;;;5124707;28;19980;-65
2022/04/21 05:07:47;;;;;;;;;;;8.70;90.10;;;;;;5106291;28;19908;-65
2022/04/21 05:10:17;;;;;;;;;;;8.70;90.30;;;;;;5124384;28;19915;-65
2022/04/21 05:12:42;;;;;;;;;;;8.50;90.60;;;;;;5124298;28;19915;-66
2022/04/21 05:15:08;;;;;;;;;;;8.50;90.50;;;;;;5124427;28;19915;-66
2022/04/21 05:17:34;;;;;;;;;;;8.50;90.90;;;;;;5124488;28;20211;-65
2022/04/21 05:20:00;;;;;;;;;;;8.50;90.50;;;;;;5124522;28;19915;-65
2022/04/21 05:22:27;;;;;;;;;;;8.50;90.60;;;;;;5123884;28;19961;-65
2022/04/21 05:24:53;;;;;;;;;;;8.50;90.50;;;;;;5123632;28;19916;-65
2022/04/21 05:27:19;;;;;;;;;;;8.50;90.70;;;;;;5124230;28;19915;-65
2022/04/21 05:32:30;;;;;;;;;;;8.50;90.60;;;;;;5123939;28;19976;-65
2022/04/21 05:34:56;;;;;;;;;;;8.50;90.60;;;;;;5089173;28;19947;-66
2022/04/21 05:37:22;;;;;;;;;;;8.60;90.40;;;;;;5123773;28;19916;-66
2022/04/21 05:39:47;;;;;;;;;;;8.60;90.50;;;;;;5124002;28;20206;-66
2022/04/21 05:42:20;;;;;;;;;;;8.60;90.50;;;;;;5120419;28;19918;-65
2022/04/21 05:44:46;;;;;;;;;;;8.60;90.40;;;;;;5111647;28;19927;-66
2022/04/21 05:47:12;;;;;;;;;;;8.70;90.50;;;;;;5123648;28;19931;-66
2022/04/21 05:49:38;;;;;;;;;;;8.70;90.50;;;;;;5123960;28;19908;-67
2022/04/21 05:52:04;;;;;;;;;;;8.80;90.30;;;;;;5123719;28;19990;-67
2022/04/21 05:54:30;;;;;;;;;;;8.90;90.10;;;;;;5105483;28;20126;-67
2022/04/21 05:56:56;;;;;;;;;;;9.00;90.00;;;;;;5123427;28;19952;-65
2022/04/21 05:59:22;;;;;;;;;;;9.00;90.00;;;;;;5123406;28;19911;-65
2022/04/21 06:01:48;;;;;;;;;;;9.10;89.80;;;;;;5122705;28;19911;-67
2022/04/21 06:04:13;;;;;;;;;;;9.10;89.60;;;;;;5105578;28;19911;-65
2022/04/21 06:06:39;;;;;;;;;;;9.20;89.40;;;;;;5123052;28;19926;-66
2022/04/21 06:09:05;;;;;;;;;;;9.20;89.10;;;;;;5123429;28;19942;-65
2022/04/21 06:11:33;;;;;;;;;;;9.30;89.10;;;;;;5123237;28;19919;-66
2022/04/21 06:13:58;;;;;;;;;;;9.30;88.80;;;;;;5123238;28;19972;-66
2022/04/21 06:16:24;;;;;;;;;;;9.30;89.30;;;;;;5122982;28;19959;-66
2022/04/21 06:18:50;;;;;;;;;;;9.30;89.40;;;;;;5122764;28;19924;-67
2022/04/21 06:21:16;;;;;;;;;;;9.50;89.50;;;;;;5122457;28;19953;-66
2022/04/21 06:23:41;;;;;;;;;;;9.60;88.90;;;;;;5123037;28;19916;-66
2022/04/21 06:26:07;;;;;;;;;;;9.70;88.60;;;;;;5116878;28;19923;-67
2022/04/21 06:28:34;;;;;;;;;;;9.80;87.80;;;;;;5130366;27;19918;-67
2022/04/21 06:30:59;;;;;;;;;;;9.70;88.60;;;;;;5122441;28;19915;-68
2022/04/21 06:33:25;;;;;;;;;;;9.80;88.00;;;;;;5122682;28;19958;-66
2022/04/21 06:35:51;;;;;;;;;;;9.90;87.80;;;;;;5122878;28;19915;-65
2022/04/21 06:38:16;;;;;;;;;;;10.10;87.30;;;;;;5118421;28;19920;-66
2022/04/21 06:40:42;;;;;;;;;;;10.20;87.00;;;;;;5122257;28;19976;-66
2022/04/21 06:48:39;;;;;;;;;;;10.50;85.70;;;;;;5123174;28;20198;-66
2022/04/21 06:51:05;;;;;;;;;;;10.60;84.80;;;;;;5122484;28;19930;-67
2022/04/21 06:53:31;;;;;;;;;;;10.60;84.70;;;;;;5123108;28;20349;-67
2022/04/21 06:55:57;;;;;;;;;;;10.70;83.70;;;;;;5122322;28;19916;-66
2022/04/21 06:58:23;;;;;;;;;;;10.70;83.70;;;;;;5122091;28;19984;-66
2022/04/21 07:00:49;;;;;;;;;;;10.90;82.90;;;;;;5121554;28;20020;-66
2022/04/21 07:03:14;;;;;;;;;;;11.00;81.90;;;;;;5120204;28;19923;-64
2022/04/21 07:05:40;;;;;;;;;;;11.10;82.40;;;;;;5121778;28;20122;-67
2022/04/21 07:08:07;;;;;;;;;;;11.20;81.80;;;;;;5122044;28;19938;-65
2022/04/21 07:10:33;;;;;;;;;;;11.30;81.10;;;;;;5121659;28;19916;-64
2022/04/21 07:12:59;;;;;;;;;;;11.40;80.50;;;;;;5121105;28;19908;-65
2022/04/21 07:15:24;;;;;;;;;;;11.50;79.60;;;;;;5121942;28;19920;-65
2022/04/21 07:17:50;;;;;;;;;;;11.50;79.10;;;;;;5122057;28;20236;-65
2022/04/21 07:20:16;;;;;;;;;;;11.60;80.00;;;;;;5121796;28;19978;-65
2022/04/21 07:22:41;;;;;;;;;;;11.70;80.00;;;;;;5121701;28;19919;-65
2022/04/21 07:25:11;;;;;;;;;;;11.80;77.10;;;;;;5121628;28;19923;-65
2022/04/21 07:27:37;;;;;;;;;;;11.80;76.00;;;;;;5121411;28;19911;-65
2022/04/21 07:30:05;;;;;;;;;;;12.10;75.20;;;;;;5121615;28;20141;-65
2022/04/21 07:32:30;;;;;;;;;;;12.00;77.10;;;;;;5121481;28;19965;-65
2022/04/21 07:34:56;;;;;;;;;;;12.10;77.30;;;;;;5121791;28;19974;-65
2022/04/21 07:37:22;;;;;;;;;;;12.10;76.90;;;;;;5121455;28;19984;-65
2022/04/21 07:39:47;;;;;;;;;;;12.20;76.00;;;;;;5121666;28;19919;-65
2022/04/21 07:42:13;;;;;;;;;;;12.20;76.00;;;;;;5112706;28;19911;-65
2022/04/21 07:44:39;;;;;;;;;;;12.40;76.90;;;;;;5121342;28;19931;-65
2022/04/21 07:47:05;;;;;;;;;;;12.40;75.60;;;;;;5121501;28;19915;-65
2022/04/21 07:49:47;;;;;;;;;;;12.50;75.20;;;;;;5121422;28;19950;-65
2022/04/21 07:55:07;;;;;;;;;;;12.70;73.90;;;;;;5119592;28;20060;-65
2022/04/21 07:57:33;;;;;;;;;;;12.70;74.50;;;;;;5121777;28;19912;-65
2022/04/21 07:59:59;;;;;;;;;;;12.70;73.90;;;;;;5103680;28;20202;-66
2022/04/21 08:02:24;;;;;;;;;;;12.70;73.70;;;;;;5121097;28;19918;-66
2022/04/21 08:04:50;;;;;;;;;;;12.80;74.00;;;;;;5121962;28;19958;-66
2022/04/21 08:07:16;;;;;;;;;;;12.90;73.90;;;;;;5121661;28;19908;-66
2022/04/21 08:09:42;;;;;;;;;;;12.90;74.30;;;;;;5121789;28;20073;-65
2022/04/21 08:12:08;;;;;;;;;;;12.90;73.90;;;;;;5119835;28;19908;-65
2022/04/21 08:14:35;;;;;;;;;;;12.90;73.30;;;;;;5116717;28;19912;-66
2022/04/21 08:17:02;;;;;;;;;;;12.90;73.40;;;;;;5121553;28;20084;-65
2022/04/21 08:19:28;;;;;;;;;;;13.00;74.20;;;;;;5121751;28;19923;-66
2022/04/21 08:21:54;;;;;;;;;;;13.00;73.50;;;;;;5121309;28;20041;-65
2022/04/21 08:32:43;;;;;;;;;;;13.60;71.30;;;;;;5104981;28;20102;-65
2022/04/21 08:35:10;;;;;;;;;;;13.60;71.90;;;;;;5115940;28;19922;-66
2022/04/21 08:37:36;;;;;;;;;;;13.80;72.00;;;;;;5112058;28;19927;-66
2022/04/21 08:40:06;;;;;;;;;;;13.80;71.10;;;;;;5121193;27;19945;-65
2022/04/21 08:42:35;;;;;;;;;;;13.70;72.90;;;;;;5125704;27;19914;-65
2022/04/21 08:45:00;;;;;;;;;;;13.70;72.00;;;;;;5124241;28;19915;-66
2022/04/21 08:47:29;;;;;;;;;;;13.60;71.70;;;;;;5124107;28;19942;-65
2022/04/21 08:49:57;;;;;;;;;;;13.70;70.40;;;;;;5125589;28;20076;-66
2022/04/21 08:52:23;;;;;;;;;;;13.90;70.50;;;;;;5123860;28;19942;-66
2022/04/21 08:54:49;;;;;;;;;;;14.00;69.00;;;;;;5124066;28;19949;-66
2022/04/21 08:57:15;;;;;;;;;;;14.10;70.60;;;;;;5106533;28;20237;-65
2022/04/21 08:59:40;;;;;;;;;;;14.20;70.40;;;;;;5125111;28;19916;-65
2022/04/21 09:02:06;;;;;;;;;;;14.30;69.40;;;;;;5124763;28;19961;-65
2022/04/21 09:04:32;;;;;;;;;;;14.30;69.60;;;;;;5125126;28;19971;-66
2022/04/21 09:07:18;;;;;;;;;;;14.30;68.20;;;;;;5125005;28;20232;-64
2022/04/21 09:10:00;;;;;;;;;;;14.30;68.00;;;;;;5125021;28;20084;-65
2022/04/21 09:12:25;;;;;;;;;;;14.20;68.40;;;;;;5129841;27;20118;-66
2022/04/21 09:14:51;;;;;;;;;;;14.20;69.10;;;;;;5145491;27;19907;-63
2022/04/21 09:17:17;;;;;;;;;;;14.20;69.00;;;;;;5145271;27;19963;-64
2022/04/21 09:19:58;;;;;;;;;;;14.30;69.90;;;;;;5145228;27;20206;-65
2022/04/21 09:22:24;;;;;;;;;;;14.50;69.70;;;;;;5144719;27;19907;-64
2022/04/21 09:24:55;;;;;;;;;;;14.60;68.50;;;;;;5124862;27;19954;-64
2022/04/21 09:27:21;;;;;;;;;;;14.70;67.30;;;;;;5124417;28;19911;-64
2022/04/21 09:29:47;;;;;;;;;;;14.70;66.70;;;;;;5123260;28;19995;-65
2022/04/21 09:32:16;;;;;;;;;;;14.80;66.50;;;;;;5093265;28;20331;-64
2022/04/21 09:34:45;;;;;;;;;;;14.90;67.80;;;;;;5122975;28;19957;-64
2022/04/21 09:37:12;;;;;;;;;;;15.30;64.70;;;;;;5123061;28;19912;-64
2022/04/21 09:39:39;;;;;;;;;;;15.10;65.20;;;;;;5120509;28;19999;-67
2022/04/21 09:42:05;;;;;;;;;;;15.20;65.20;;;;;;5093600;28;19923;-67
2022/04/21 09:47:19;;;;;;;;;;;15.50;64.80;;;;;;5144674;27;20012;-68
2022/04/21 09:49:45;;;;;;;;;;;15.60;64.30;;;;;;5144515;27;19922;-69
2022/04/21 09:52:12;;;;;;;;;;;15.60;63.30;;;;;;5144418;27;19907;-69
2022/04/21 09:54:40;;;;;;;;;;;15.70;63.70;;;;;;5143948;27;19914;-68
2022/04/21 09:57:07;;;;;;;;;;;15.80;63.20;;;;;;5123134;28;19915;-68
2022/04/21 09:59:35;;;;;;;;;;;15.90;63.80;;;;;;5123895;28;19911;-68
2022/04/21 10:02:04;;;;;;;;;;;16.10;61.90;;;;;;5105284;28;19916;-69
2022/04/21 10:04:30;;;;;;;;;;;16.00;60.40;;;;;;5124042;28;19984;-67
2022/04/21 10:06:56;;;;;;;;;;;16.10;61.60;;;;;;5124826;28;19908;-67
2022/04/21 10:09:21;;;;;;;;;;;16.30;61.10;;;;;;5088018;28;19916;-67
2022/04/21 10:11:47;;;;;;;;;;;16.50;59.20;;;;;;5122579;28;19907;-67
2022/04/21 10:14:13;;;;;;;;;;;16.60;58.80;;;;;;5106589;28;19908;-66
2022/04/21 10:16:39;;;;;;;;;;;16.60;57.90;;;;;;5133313;27;19907;-67
2022/04/21 10:19:05;;;;;;;;;;;16.70;58.30;;;;;;5145010;27;19956;-66
2022/04/21 10:21:42;;;;;;;;;;;16.80;56.20;;;;;;5126425;27;19939;-67
2022/04/21 10:24:09;;;;;;;;;;;16.80;57.40;;;;;;5126921;27;19939;-67
2022/04/21 10:26:41;;;;;;;;;;;16.40;58.10;;;;;;5108852;28;19975;-67
2022/04/21 10:29:17;;;;;;;;;;;16.30;57.10;;;;;;5124296;28;20107;-67
2022/04/21 10:32:03;;;;;;;;;;;16.30;58.00;;;;;;5089126;28;19986;-67
2022/04/21 10:34:40;;;;;;;;;;;16.60;57.60;;;;;;5124160;28;19945;-67
2022/04/21 10:37:14;;;;;;;;;;;16.90;55.80;;;;;;5124049;28;19960;-67
2022/04/21 10:40:00;;;;;;;;;;;17.20;57.90;;;;;;5124276;28;19920;-67
2022/04/21 10:42:26;;;;;;;;;;;17.40;53.90;;;;;;5123545;28;19907;-67
2022/04/21 10:44:52;;;;;;;;;;;17.40;54.00;;;;;;5105773;28;19915;-67
2022/04/21 10:47:34;;;;;;;;;;;17.20;54.30;;;;;;5109898;27;19907;-67
2022/04/21 10:50:10;;;;;;;;;;;17.20;55.50;;;;;;5144272;27;19907;-67
2022/04/21 10:57:50;;;;;;;;;;;17.60;53.40;;;;;;5124146;27;19965;-67
2022/04/21 11:00:28;;;;;;;;;;;17.90;54.10;;;;;;5123212;28;19986;-67
2022/04/21 11:03:06;;;;;;;;;;;18.00;52.70;;;;;;5122611;28;19908;-66
2022/04/21 11:05:34;;;;;;;;;;;17.90;51.50;;;;;;5124988;27;19960;-68
2022/04/21 11:08:04;;;;;;;;;;;17.90;53.70;;;;;;5123565;28;19911;-67
2022/04/21 11:10:38;;;;;;;;;;;17.80;51.80;;;;;;5105344;28;19908;-67
2022/04/21 11:13:10;;;;;;;;;;;17.90;51.40;;;;;;5122990;28;19915;-67
2022/04/21 11:15:47;;;;;;;;;;;18.00;52.10;;;;;;5105145;28;19914;-67
2022/04/21 11:18:21;;;;;;;;;;;18.20;51.80;;;;;;5106907;28;19919;-68
2022/04/21 11:20:48;;;;;;;;;;;18.40;51.50;;;;;;5105900;28;19908;-67
2022/04/21 11:23:37;;;;;;;;;;;18.60;50.50;;;;;;5123371;28;19908;-67
2022/04/21 11:26:06;;;;;;;;;;;18.50;49.80;;;;;;5106227;28;19908;-67
2022/04/21 11:28:32;;;;;;;;;;;18.50;51.40;;;;;;5123202;28;19908;-67
2022/04/21 11:31:02;;;;;;;;;;;18.50;49.40;;;;;;5122830;28;19979;-67
2022/04/21 11:33:28;;;;;;;;;;;18.30;50.20;;;;;;5122058;28;19908;-67
2022/04/21 11:36:04;;;;;;;;;;;18.20;49.50;;;;;;5108220;28;19982;-67
2022/04/21 11:38:39;;;;;;;;;;;18.20;50.60;;;;;;5128877;27;20230;-67
2022/04/21 11:41:05;;;;;;;;;;;18.40;50.70;;;;;;5121988;28;20003;-67
2022/04/21 11:43:31;;;;;;;;;;;18.60;50.60;;;;;;5122890;28;20083;-67
2022/04/21 11:45:58;;;;;;;;;;;;;;;;;;5123068;28;19978;-67
2022/04/21 11:48:29;;;;;;;;;;;19.50;48.80;;;;;;5122789;28;21268;-68
2022/04/21 11:50:54;;;;;;;;;;;19.90;49.60;;;;;;5120076;28;20206;-67
2022/04/21 11:53:20;;;;;;;;;;;20.30;47.80;;;;;;5122924;28;19922;-67
2022/04/21 11:55:50;;;;;;;;;;;20.70;46.70;;;;;;5123035;28;19907;-67
2022/04/21 11:58:35;;;;;;;;;;;20.60;46.00;;;;;;5122759;28;19984;-68
2022/04/21 12:06:36;;;;;;;;;;;20.00;44.60;;;;;;5109534;28;19922;-67
2022/04/21 12:09:02;;;;;;;;;;;19.60;45.60;;;;;;5092006;28;19908;-67
2022/04/21 12:11:28;;;;;;;;;;;19.00;44.90;;;;;;5113729;27;20088;-67
2022/04/21 12:13:54;;;;;;;;;;;18.30;46.70;;;;;;5150461;27;19908;-67
2022/04/21 12:16:42;;;;;;;;;;;17.70;49.50;;;;;;5102126;28;19994;-67
2022/04/21 12:19:12;;;;;;;;;;;17.40;50.20;;;;;;5129553;28;19923;-67
2022/04/21 12:21:38;;;;;;;;;;;17.30;50.40;;;;;;5128349;28;19908;-67
2022/04/21 12:24:17;;;;;;;;;;;17.10;50.80;;;;;;5129538;28;19915;-67
2022/04/21 12:27:03;;;;;;;;;;;16.80;50.70;;;;;;5128862;28;20110;-67
2022/04/21 12:29:31;;;;;;;;;;;16.40;51.30;;;;;;5129776;28;19914;-68
2022/04/21 12:32:03;;;;;;;;;;;16.30;52.20;;;;;;5111065;28;19954;-67
2022/04/21 12:34:30;;;;;;;;;;;16.10;52.70;;;;;;5110387;28;19908;-67
2022/04/21 12:37:00;;;;;;;;;;;16.00;53.40;;;;;;5129146;28;19908;-68
2022/04/21 12:39:27;;;;;;;;;;;15.90;53.50;;;;;;5127285;28;19911;-68
2022/04/21 12:41:53;;;;;;;;;;;16.00;52.60;;;;;;5129266;28;19985;-68
2022/04/21 12:44:19;;;;;;;;;;;16.00;52.50;;;;;;5129039;28;19912;-67
2022/04/21 12:47:02;;;;;;;;;;;16.20;52.70;;;;;;5129419;28;19976;-67
2022/04/21 12:49:51;;;;;;;;;;;16.20;51.50;;;;;;5128195;28;19907;-67
2022/04/21 12:52:35;;;;;;;;;;;16.30;51.90;;;;;;5128860;28;19911;-67
2022/04/21 12:55:08;;;;;;;;;;;16.30;51.00;;;;;;5128367;28;19914;-68
2022/04/21 12:57:37;;;;;;;;;;;16.50;51.70;;;;;;5111690;28;20133;-68
2022/04/21 13:00:13;;;;;;;;;;;16.60;51.60;;;;;;5110871;28;19911;-67
2022/04/21 13:02:38;;;;;;;;;;;16.90;50.90;;;;;;5110827;28;19914;-67
2022/04/21 13:05:04;;;;;;;;;;;16.70;49.00;;;;;;5094333;28;20110;-67
2022/04/21 13:07:30;;;;;;;;;;;16.50;49.90;;;;;;5128146;28;19939;-67
2022/04/21 13:09:56;;;;;;;;;;;16.40;50.50;;;;;;5129187;28;19907;-67
2022/04/21 13:12:21;;;;;;;;;;;16.40;51.00;;;;;;5124929;28;19922;-67
2022/04/21 13:14:47;;;;;;;;;;;16.40;51.90;;;;;;5125920;28;19971;-67
2022/04/21 13:17:13;;;;;;;;;;;16.30;51.30;;;;;;5125947;28;19907;-67
2022/04/21 13:19:38;;;;;;;;;;;16.30;51.70;;;;;;5125333;28;19916;-66
2022/04/21 13:22:04;;;;;;;;;;;16.30;51.30;;;;;;5125326;28;19945;-67
2022/04/21 13:24:30;;;;;;;;;;;16.30;51.10;;;;;;5125671;28;20096;-67
2022/04/21 13:26:57;;;;;;;;;;;16.30;50.90;;;;;;5124895;28;19920;-67
2022/04/21 13:29:23;;;;;;;;;;;16.20;51.60;;;;;;5125557;28;19915;-67
2022/04/21 13:34:33;;;;;;;;;;;16.10;54.00;;;;;;5104782;28;19915;-67
2022/04/21 13:37:00;;;;;;;;;;;15.90;55.10;;;;;;5104902;28;19995;-66
2022/04/21 13:39:27;;;;;;;;;;;15.80;55.40;;;;;;5124614;28;20243;-67
2022/04/21 13:41:52;;;;;;;;;;;15.70;56.10;;;;;;5124838;28;19912;-67
2022/04/21 13:44:18;;;;;;;;;;;15.70;55.70;;;;;;5125380;28;20005;-67
2022/04/21 13:46:44;;;;;;;;;;;15.60;55.50;;;;;;5125250;28;20218;-67
2022/04/21 13:49:09;;;;;;;;;;;15.70;56.10;;;;;;5124453;28;19916;-67
2022/04/21 13:51:36;;;;;;;;;;;15.70;55.90;;;;;;5124652;28;19927;-68
2022/04/21 13:54:03;;;;;;;;;;;15.80;55.10;;;;;;5106664;28;19953;-67
2022/04/21 13:56:29;;;;;;;;;;;15.80;55.70;;;;;;5125049;28;19908;-68
2022/04/21 13:58:54;;;;;;;;;;;15.80;55.40;;;;;;5125128;28;19918;-67
2022/04/21 14:01:21;;;;;;;;;;;15.80;54.40;;;;;;5124045;28;19916;-67
2022/04/21 14:03:47;;;;;;;;;;;15.80;54.70;;;;;;5125221;28;20158;-67
2022/04/21 14:06:13;;;;;;;;;;;15.80;55.30;;;;;;5105794;28;19908;-67
2022/04/21 14:08:39;;;;;;;;;;;15.80;54.80;;;;;;5124913;28;19908;-68
2022/04/21 14:11:06;;;;;;;;;;;15.80;54.40;;;;;;5105519;28;19922;-67
2022/04/21 14:13:31;;;;;;;;;;;15.80;54.00;;;;;;5123838;28;19986;-67
2022/04/21 14:15:58;;;;;;;;;;;15.70;54.00;;;;;;5123816;28;19916;-67
2022/04/21 14:18:25;;;;;;;;;;;15.40;54.50;;;;;;5124727;28;19956;-67
2022/04/21 14:20:52;;;;;;;;;;;15.40;55.20;;;;;;5123352;28;19982;-67
2022/04/21 14:23:20;;;;;;;;;;;15.40;55.80;;;;;;5123736;28;19908;-67
2022/04/21 14:25:46;;;;;;;;;;;15.30;56.20;;;;;;5123786;28;20184;-68
2022/04/21 14:28:12;;;;;;;;;;;15.30;56.40;;;;;;5124236;28;19908;-67
2022/04/21 14:30:38;;;;;;;;;;;15.20;56.40;;;;;;5106065;28;19908;-67
2022/04/21 14:33:03;;;;;;;;;;;15.20;57.00;;;;;;5123462;28;19938;-67
2022/04/21 14:35:29;;;;;;;;;;;15.20;56.10;;;;;;5124247;28;19918;-67
2022/04/21 14:46:07;;;;;;;;;;;15.40;56.20;;;;;;5124232;28;19923;-68
2022/04/21 14:48:33;;;;;;;;;;;15.60;56.40;;;;;;5104847;28;19982;-67
2022/04/21 14:50:59;;;;;;;;;;;15.50;56.90;;;;;;5123801;28;19912;-68
2022/04/21 14:53:25;;;;;;;;;;;15.60;56.40;;;;;;5123411;28;19923;-66
2022/04/21 14:55:52;;;;;;;;;;;15.70;56.00;;;;;;5105387;28;19968;-67
2022/04/21 14:58:18;;;;;;;;;;;15.50;55.30;;;;;;5123775;28;19943;-67
2022/04/21 15:00:44;;;;;;;;;;;15.40;55.40;;;;;;5122450;28;19975;-67
2022/04/21 15:03:12;;;;;;;;;;;15.40;55.70;;;;;;5105695;28;19916;-67
2022/04/21 15:05:38;;;;;;;;;;;15.30;56.30;;;;;;5122769;28;20193;-66
2022/04/21 15:08:05;;;;;;;;;;;15.20;56.80;;;;;;5123624;28;19935;-67
2022/04/21 15:10:33;;;;;;;;;;;15.20;57.20;;;;;;5123467;28;19908;-67
2022/04/21 15:12:59;;;;;;;;;;;15.20;57.40;;;;;;5104592;28;19908;-67
2022/04/21 15:15:24;;;;;;;;;;;15.30;57.80;;;;;;5123632;28;20003;-67
2022/04/21 15:17:50;;;;;;;;;;;15.30;57.50;;;;;;5123612;28;20328;-68
2022/04/21 15:20:16;;;;;;;;;;;15.20;57.40;;;;;;5122621;28;20138;-67
2022/04/21 15:22:41;;;;;;;;;;;15.20;58.20;;;;;;5123128;28;19939;-67
2022/04/21 15:25:07;;;;;;;;;;;15.20;58.00;;;;;;5104380;28;19978;-67
2022/04/21 15:27:34;;;;;;;;;;;15.20;57.90;;;;;;5123470;28;19962;-67